sensor_id;sensor_type;location;lat;lon;timestamp;temperature;humidity
6293;DHT22;3179;54.350;10.102;2023-07-22T00:02:24;17.20;99.90
6293;DHT22;3179;54.350;10.102;2023-07-22T00:04:50;17.30;99.90
6293;DHT22;3179;54.350;10.102;2023-07-22T00:07:18;17.20;99.90
6293;DHT22;3179;54.350;10.102;2023-07-22T00:09:44;17.20;99.90
6293;DHT22;3179;54.350;10.102;2023-07-22T00:12:11;17.20;99.90
6293;DHT22;3179;54.350;10.102;2023-07-22T00:14:40;17.20;99.90
6293;DHT22;3179;54.350;10.102;2023-07-22T00:17:07;17.20;99.90
6293;DHT22;3179;54.350;10.102;2023-07-22T00:19:34;17.20;99.90
6293;DHT22;3179;54.350;10.102;2023-07-22T00:22:01;17.10;99.90
6293;DHT22;3179;54.350;10.102;2023-07-22T00:24:28;17.10;99.90
6293;DHT22;3179;54.350;10.102;2023-07-22T00:26:55;17.10;99.90
6293;DHT22;3179;54.350;10.102;2023-07-22T00:29:22;17.10;99.90
6293;DHT22;3179;54.350;10.102;2023-07-22T00:31:50;17.10;99.90
6293;DHT22;3179;54.350;10.102;2023-07-22T00:34:17;17.20;99.90
6293;DHT22;3179;54.350;10.102;2023-07-22T00:36:43;17.10;99.90
6293;DHT22;3179;54.350;10.102;2023-07-22T00:39:11;17.20;99.90
6293;DHT22;3179;54.350;10.102;2023-07-22T00:41:39;17.10;99.90
6293;DHT22;3179;54.350;10.102;2023-07-22T00:44:08;17.10;99.90
6293;DHT22;3179;54.350;10.102;2023-07-22T00:46:34;17.20;99.90
6293;DHT22;3179;54.350;10.102;2023-07-22T00:49:04;17.20;99.90
6293;DHT22;3179;54.350;10.102;2023-07-22T00:51:31;17.20;99.90
6293;DHT22;3179;54.350;10.102;2023-07-22T00:53:58;17.10;99.90
6293;DHT22;3179;54.350;10.102;2023-07-22T00:56:26;17.20;99.90
6293;DHT22;3179;54.350;10.102;2023-07-22T00:58:52;17.10;99.90
6293;DHT22;3179;54.350;10.102;2023-07-22T01:01:19;17.10;99.90
6293;DHT22;3179;54.350;10.102;2023-07-22T01:03:46;17.10;99.90
6293;DHT22;3179;54.350;10.102;2023-07-22T01:06:14;17.10;99.90
6293;DHT22;3179;54.350;10.102;2023-07-22T01:08:43;17.00;99.90
6293;DHT22;3179;54.350;10.102;2023-07-22T01:11:10;17.00;99.90
6293;DHT22;3179;54.350;10.102;2023-07-22T01:13:38;17.00;99.90
6293;DHT22;3179;54.350;10.102;2023-07-22T01:16:05;17.00;99.90
6293;DHT22;3179;54.350;10.102;2023-07-22T01:18:32;17.00;99.90
6293;DHT22;3179;54.350;10.102;2023-07-22T01:20:59;17.00;99.90
6293;DHT22;3179;54.350;10.102;2023-07-22T01:23:28;17.00;99.90
6293;DHT22;3179;54.350;10.102;2023-07-22T01:25:55;16.90;99.90
6293;DHT22;3179;54.350;10.102;2023-07-22T01:28:22;17.00;99.90
6293;DHT22;3179;54.350;10.102;2023-07-22T01:30:49;17.00;99.90
6293;DHT22;3179;54.350;10.102;2023-07-22T01:33:16;17.00;99.90
6293;DHT22;3179;54.350;10.102;2023-07-22T01:35:42;17.00;99.90
6293;DHT22;3179;54.350;10.102;2023-07-22T01:38:09;17.00;99.90
6293;DHT22;3179;54.350;10.102;2023-07-22T01:40:37;17.00;99.90
6293;DHT22;3179;54.350;10.102;2023-07-22T01:43:04;16.90;99.90
6293;DHT22;3179;54.350;10.102;2023-07-22T01:45:31;16.90;99.90
6293;DHT22;3179;54.350;10.102;2023-07-22T01:47:58;16.90;99.90
6293;DHT22;3179;54.350;10.102;2023-07-22T01:50:24;16.90;99.90
6293;DHT22;3179;54.350;10.102;2023-07-22T01:52:51;16.90;99.90
6293;DHT22;3179;54.350;10.102;2023-07-22T01:55:18;16.90;99.90
6293;DHT22;3179;54.350;10.102;2023-07-22T01:57:46;16.80;99.90
6293;DHT22;3179;54.350;10.102;2023-07-22T02:00:13;16.90;99.90
6293;DHT22;3179;54.350;10.102;2023-07-22T02:02:41;16.90;99.90
6293;DHT22;3179;54.350;10.102;2023-07-22T02:05:08;16.90;99.90
6293;DHT22;3179;54.350;10.102;2023-07-22T02:07:35;16.80;99.90
6293;DHT22;3179;54.350;10.102;2023-07-22T02:10:03;16.80;99.90
6293;DHT22;3179;54.350;10.102;2023-07-22T02:12:30;16.80;99.90
6293;DHT22;3179;54.350;10.102;2023-07-22T02:14:58;16.80;99.90
6293;DHT22;3179;54.350;10.102;2023-07-22T02:17:25;16.80;99.90
6293;DHT22;3179;54.350;10.102;2023-07-22T02:19:52;16.70;99.90
6293;DHT22;3179;54.350;10.102;2023-07-22T02:22:18;16.70;99.90
6293;DHT22;3179;54.350;10.102;2023-07-22T02:24:45;16.70;99.90
6293;DHT22;3179;54.350;10.102;2023-07-22T02:27:12;16.70;99.90
6293;DHT22;3179;54.350;10.102;2023-07-22T02:29:39;16.70;99.90
6293;DHT22;3179;54.350;10.102;2023-07-22T02:32:08;16.70;99.90
6293;DHT22;3179;54.350;10.102;2023-07-22T02:34:35;16.70;99.90
6293;DHT22;3179;54.350;10.102;2023-07-22T02:37:03;16.70;99.90
6293;DHT22;3179;54.350;10.102;2023-07-22T02:39:29;16.70;99.90
6293;DHT22;3179;54.350;10.102;2023-07-22T02:41:55;16.70;99.90
6293;DHT22;3179;54.350;10.102;2023-07-22T02:44:22;16.60;99.90
6293;DHT22;3179;54.350;10.102;2023-07-22T02:46:49;16.60;99.90
6293;DHT22;3179;54.350;10.102;2023-07-22T02:49:17;16.60;99.90
6293;DHT22;3179;54.350;10.102;2023-07-22T02:51:44;16.60;99.90
6293;DHT22;3179;54.350;10.102;2023-07-22T02:54:10;16.60;99.90
6293;DHT22;3179;54.350;10.102;2023-07-22T02:56:37;16.60;99.90
6293;DHT22;3179;54.350;10.102;2023-07-22T02:59:04;16.60;99.90
6293;DHT22;3179;54.350;10.102;2023-07-22T03:01:31;16.60;99.90
6293;DHT22;3179;54.350;10.102;2023-07-22T03:03:58;16.60;99.90
6293;DHT22;3179;54.350;10.102;2023-07-22T03:06:26;16.60;99.90
6293;DHT22;3179;54.350;10.102;2023-07-22T03:08:54;16.60;99.90
6293;DHT22;3179;54.350;10.102;2023-07-22T03:11:23;16.60;99.90
6293;DHT22;3179;54.350;10.102;2023-07-22T03:13:50;16.60;99.90
6293;DHT22;3179;54.350;10.102;2023-07-22T03:16:17;16.60;99.90
6293;DHT22;3179;54.350;10.102;2023-07-22T03:18:44;16.60;99.90
6293;DHT22;3179;54.350;10.102;2023-07-22T03:21:10;16.60;99.90
6293;DHT22;3179;54.350;10.102;2023-07-22T03:23:39;16.60;99.90
6293;DHT22;3179;54.350;10.102;2023-07-22T03:26:05;16.60;99.90
6293;DHT22;3179;54.350;10.102;2023-07-22T03:28:32;16.50;99.90
6293;DHT22;3179;54.350;10.102;2023-07-22T03:30:59;16.50;99.90
6293;DHT22;3179;54.350;10.102;2023-07-22T03:33:26;16.40;99.90
6293;DHT22;3179;54.350;10.102;2023-07-22T03:35:52;16.40;99.90
6293;DHT22;3179;54.350;10.102;2023-07-22T03:38:19;16.40;99.90
6293;DHT22;3179;54.350;10.102;2023-07-22T03:40:47;16.40;99.90
6293;DHT22;3179;54.350;10.102;2023-07-22T03:43:14;16.40;99.90
6293;DHT22;3179;54.350;10.102;2023-07-22T03:45:41;16.30;99.90
6293;DHT22;3179;54.350;10.102;2023-07-22T03:48:08;16.30;99.90
6293;DHT22;3179;54.350;10.102;2023-07-22T03:50:35;16.30;99.90
6293;DHT22;3179;54.350;10.102;2023-07-22T03:53:02;16.30;99.90
6293;DHT22;3179;54.350;10.102;2023-07-22T03:55:28;16.30;99.90
6293;DHT22;3179;54.350;10.102;2023-07-22T03:57:56;16.30;99.90
6293;DHT22;3179;54.350;10.102;2023-07-22T04:00:23;16.30;99.90
6293;DHT22;3179;54.350;10.102;2023-07-22T04:02:50;16.20;99.90
6293;DHT22;3179;54.350;10.102;2023-07-22T04:05:18;16.20;99.90
6293;DHT22;3179;54.350;10.102;2023-07-22T04:07:45;16.20;99.90
6293;DHT22;3179;54.350;10.102;2023-07-22T04:10:11;16.20;99.90
6293;DHT22;3179;54.350;10.102;2023-07-22T04:12:38;16.20;99.90
6293;DHT22;3179;54.350;10.102;2023-07-22T04:15:07;16.20;99.90
6293;DHT22;3179;54.350;10.102;2023-07-22T04:17:34;16.20;99.90
6293;DHT22;3179;54.350;10.102;2023-07-22T04:20:01;16.20;99.90
6293;DHT22;3179;54.350;10.102;2023-07-22T04:22:29;16.30;99.90
6293;DHT22;3179;54.350;10.102;2023-07-22T04:24:56;16.20;99.90
6293;DHT22;3179;54.350;10.102;2023-07-22T04:27:23;16.20;99.90
6293;DHT22;3179;54.350;10.102;2023-07-22T04:29:49;16.20;99.90
6293;DHT22;3179;54.350;10.102;2023-07-22T04:32:18;16.30;99.90
6293;DHT22;3179;54.350;10.102;2023-07-22T04:34:44;16.20;99.90
6293;DHT22;3179;54.350;10.102;2023-07-22T04:37:11;16.30;99.90
6293;DHT22;3179;54.350;10.102;2023-07-22T04:39:38;16.30;99.90
6293;DHT22;3179;54.350;10.102;2023-07-22T04:42:05;16.30;99.90
6293;DHT22;3179;54.350;10.102;2023-07-22T04:44:32;16.30;99.90
6293;DHT22;3179;54.350;10.102;2023-07-22T04:46:59;16.30;99.90
6293;DHT22;3179;54.350;10.102;2023-07-22T04:49:27;16.20;99.90
6293;DHT22;3179;54.350;10.102;2023-07-22T04:51:54;16.20;99.90
6293;DHT22;3179;54.350;10.102;2023-07-22T04:54:21;16.20;99.90
6293;DHT22;3179;54.350;10.102;2023-07-22T04:56:48;16.20;99.90
6293;DHT22;3179;54.350;10.102;2023-07-22T04:59:14;16.20;99.90
6293;DHT22;3179;54.350;10.102;2023-07-22T05:01:41;16.20;99.90
6293;DHT22;3179;54.350;10.102;2023-07-22T05:04:09;16.20;99.90
6293;DHT22;3179;54.350;10.102;2023-07-22T05:06:37;16.20;99.90
6293;DHT22;3179;54.350;10.102;2023-07-22T05:09:04;16.20;99.90
6293;DHT22;3179;54.350;10.102;2023-07-22T05:11:30;16.20;99.90
6293;DHT22;3179;54.350;10.102;2023-07-22T05:13:57;16.20;99.90
6293;DHT22;3179;54.350;10.102;2023-07-22T05:16:24;16.20;99.90
6293;DHT22;3179;54.350;10.102;2023-07-22T05:18:51;16.20;99.90
6293;DHT22;3179;54.350;10.102;2023-07-22T05:21:17;16.20;99.90
6293;DHT22;3179;54.350;10.102;2023-07-22T05:23:45;16.20;99.90
6293;DHT22;3179;54.350;10.102;2023-07-22T05:26:12;16.20;99.90
6293;DHT22;3179;54.350;10.102;2023-07-22T05:28:39;16.20;99.90
6293;DHT22;3179;54.350;10.102;2023-07-22T05:31:06;16.30;99.90
6293;DHT22;3179;54.350;10.102;2023-07-22T05:33:33;16.30;99.90
6293;DHT22;3179;54.350;10.102;2023-07-22T05:35:59;16.30;99.90
6293;DHT22;3179;54.350;10.102;2023-07-22T05:38:26;16.20;99.90
6293;DHT22;3179;54.350;10.102;2023-07-22T05:40:54;16.30;99.90
6293;DHT22;3179;54.350;10.102;2023-07-22T05:43:21;16.30;99.90
6293;DHT22;3179;54.350;10.102;2023-07-22T05:45:48;16.30;99.90
6293;DHT22;3179;54.350;10.102;2023-07-22T05:48:15;16.30;99.90
6293;DHT22;3179;54.350;10.102;2023-07-22T05:50:42;16.30;99.90
6293;DHT22;3179;54.350;10.102;2023-07-22T05:53:09;16.30;99.90
6293;DHT22;3179;54.350;10.102;2023-07-22T05:55:35;16.30;99.90
6293;DHT22;3179;54.350;10.102;2023-07-22T05:58:04;16.30;99.90
6293;DHT22;3179;54.350;10.102;2023-07-22T06:00:32;16.30;99.90
6293;DHT22;3179;54.350;10.102;2023-07-22T06:02:59;16.40;99.90
6293;DHT22;3179;54.350;10.102;2023-07-22T06:05:25;16.40;99.90
6293;DHT22;3179;54.350;10.102;2023-07-22T06:07:52;16.40;99.90
6293;DHT22;3179;54.350;10.102;2023-07-22T06:10:20;16.50;99.90
6293;DHT22;3179;54.350;10.102;2023-07-22T06:12:46;16.50;99.90
6293;DHT22;3179;54.350;10.102;2023-07-22T06:15:14;16.60;99.90
6293;DHT22;3179;54.350;10.102;2023-07-22T06:17:41;16.70;99.90
6293;DHT22;3179;54.350;10.102;2023-07-22T06:20:09;16.70;99.90
6293;DHT22;3179;54.350;10.102;2023-07-22T06:22:36;16.90;99.90
6293;DHT22;3179;54.350;10.102;2023-07-22T06:25:04;16.90;99.90
6293;DHT22;3179;54.350;10.102;2023-07-22T06:27:31;16.90;99.90
6293;DHT22;3179;54.350;10.102;2023-07-22T06:29:57;16.90;99.90
6293;DHT22;3179;54.350;10.102;2023-07-22T06:32:26;17.00;99.90
6293;DHT22;3179;54.350;10.102;2023-07-22T06:34:55;17.00;99.90
6293;DHT22;3179;54.350;10.102;2023-07-22T06:37:22;17.10;99.90
6293;DHT22;3179;54.350;10.102;2023-07-22T06:39:49;17.10;99.90
6293;DHT22;3179;54.350;10.102;2023-07-22T06:42:16;17.10;99.90
6293;DHT22;3179;54.350;10.102;2023-07-22T06:44:43;17.10;99.90
6293;DHT22;3179;54.350;10.102;2023-07-22T06:47:10;17.10;99.90
6293;DHT22;3179;54.350;10.102;2023-07-22T06:49:38;17.10;99.90
6293;DHT22;3179;54.350;10.102;2023-07-22T06:52:06;17.10;99.90
6293;DHT22;3179;54.350;10.102;2023-07-22T06:54:33;17.10;99.90
6293;DHT22;3179;54.350;10.102;2023-07-22T06:57:00;17.10;99.90
6293;DHT22;3179;54.350;10.102;2023-07-22T06:59:27;17.10;99.90
6293;DHT22;3179;54.350;10.102;2023-07-22T07:01:54;17.10;99.90
6293;DHT22;3179;54.350;10.102;2023-07-22T07:04:21;17.00;99.90
6293;DHT22;3179;54.350;10.102;2023-07-22T07:06:49;16.90;99.90
6293;DHT22;3179;54.350;10.102;2023-07-22T07:09:16;17.00;99.90
6293;DHT22;3179;54.350;10.102;2023-07-22T07:11:43;16.90;99.90
6293;DHT22;3179;54.350;10.102;2023-07-22T07:14:09;16.90;99.90
6293;DHT22;3179;54.350;10.102;2023-07-22T07:16:36;16.90;99.90
6293;DHT22;3179;54.350;10.102;2023-07-22T07:19:03;16.90;99.90
6293;DHT22;3179;54.350;10.102;2023-07-22T07:21:30;17.00;99.90
6293;DHT22;3179;54.350;10.102;2023-07-22T07:23:58;16.90;99.90
6293;DHT22;3179;54.350;10.102;2023-07-22T07:26:25;17.00;99.90
6293;DHT22;3179;54.350;10.102;2023-07-22T07:28:52;17.00;99.90
6293;DHT22;3179;54.350;10.102;2023-07-22T07:31:19;17.10;99.90
6293;DHT22;3179;54.350;10.102;2023-07-22T07:33:45;17.10;99.90
6293;DHT22;3179;54.350;10.102;2023-07-22T07:36:12;17.10;99.90
6293;DHT22;3179;54.350;10.102;2023-07-22T07:38:40;17.20;99.90
6293;DHT22;3179;54.350;10.102;2023-07-22T07:41:10;17.20;99.90
6293;DHT22;3179;54.350;10.102;2023-07-22T07:43:38;17.20;99.90
6293;DHT22;3179;54.350;10.102;2023-07-22T07:46:15;17.30;99.90
6293;DHT22;3179;54.350;10.102;2023-07-22T07:48:43;17.30;99.90
6293;DHT22;3179;54.350;10.102;2023-07-22T07:51:12;17.40;99.90
6293;DHT22;3179;54.350;10.102;2023-07-22T07:53:39;17.50;99.90
6293;DHT22;3179;54.350;10.102;2023-07-22T07:56:08;17.50;99.90
6293;DHT22;3179;54.350;10.102;2023-07-22T07:58:35;17.50;99.90
6293;DHT22;3179;54.350;10.102;2023-07-22T08:01:02;17.50;99.90
6293;DHT22;3179;54.350;10.102;2023-07-22T08:03:29;17.60;99.90
6293;DHT22;3179;54.350;10.102;2023-07-22T08:05:55;17.70;99.90
6293;DHT22;3179;54.350;10.102;2023-07-22T08:08:22;17.70;99.90
6293;DHT22;3179;54.350;10.102;2023-07-22T08:10:57;17.70;99.90
6293;DHT22;3179;54.350;10.102;2023-07-22T08:13:26;17.70;99.90
6293;DHT22;3179;54.350;10.102;2023-07-22T08:15:55;17.80;99.90
6293;DHT22;3179;54.350;10.102;2023-07-22T08:18:22;17.80;99.90
6293;DHT22;3179;54.350;10.102;2023-07-22T08:20:49;17.80;99.90
6293;DHT22;3179;54.350;10.102;2023-07-22T08:23:16;17.80;99.90
6293;DHT22;3179;54.350;10.102;2023-07-22T08:25:42;17.90;99.90
6293;DHT22;3179;54.350;10.102;2023-07-22T08:28:09;17.90;99.90
6293;DHT22;3179;54.350;10.102;2023-07-22T08:30:37;18.00;99.90
6293;DHT22;3179;54.350;10.102;2023-07-22T08:33:05;18.00;99.90
6293;DHT22;3179;54.350;10.102;2023-07-22T08:35:33;18.00;99.90
6293;DHT22;3179;54.350;10.102;2023-07-22T08:38:00;18.00;99.90
6293;DHT22;3179;54.350;10.102;2023-07-22T08:40:32;18.10;99.90
6293;DHT22;3179;54.350;10.102;2023-07-22T08:43:02;18.10;99.90
6293;DHT22;3179;54.350;10.102;2023-07-22T08:45:31;18.20;99.90
6293;DHT22;3179;54.350;10.102;2023-07-22T08:48:03;18.20;99.90
6293;DHT22;3179;54.350;10.102;2023-07-22T08:50:35;18.10;99.90
6293;DHT22;3179;54.350;10.102;2023-07-22T08:53:03;18.20;99.90
6293;DHT22;3179;54.350;10.102;2023-07-22T08:55:30;18.30;99.90
6293;DHT22;3179;54.350;10.102;2023-07-22T08:57:58;18.30;99.90
6293;DHT22;3179;54.350;10.102;2023-07-22T09:00:25;18.40;99.90
6293;DHT22;3179;54.350;10.102;2023-07-22T09:02:52;18.50;99.90
6293;DHT22;3179;54.350;10.102;2023-07-22T09:05:21;18.60;99.90
6293;DHT22;3179;54.350;10.102;2023-07-22T09:07:48;18.70;99.90
6293;DHT22;3179;54.350;10.102;2023-07-22T09:10:16;18.70;99.90
6293;DHT22;3179;54.350;10.102;2023-07-22T09:12:43;18.70;99.90
6293;DHT22;3179;54.350;10.102;2023-07-22T09:15:11;18.60;99.90
6293;DHT22;3179;54.350;10.102;2023-07-22T09:17:38;18.50;99.90
6293;DHT22;3179;54.350;10.102;2023-07-22T09:20:08;18.50;99.90
6293;DHT22;3179;54.350;10.102;2023-07-22T09:22:38;18.40;99.90
6293;DHT22;3179;54.350;10.102;2023-07-22T09:25:13;18.30;99.90
6293;DHT22;3179;54.350;10.102;2023-07-22T09:27:40;18.40;99.90
6293;DHT22;3179;54.350;10.102;2023-07-22T09:30:20;18.50;99.90
6293;DHT22;3179;54.350;10.102;2023-07-22T09:32:48;18.70;99.90
6293;DHT22;3179;54.350;10.102;2023-07-22T09:35:14;18.70;99.90
6293;DHT22;3179;54.350;10.102;2023-07-22T09:37:43;18.70;99.90
6293;DHT22;3179;54.350;10.102;2023-07-22T09:40:18;18.60;99.90
6293;DHT22;3179;54.350;10.102;2023-07-22T09:42:46;18.60;99.90
6293;DHT22;3179;54.350;10.102;2023-07-22T09:45:13;18.50;99.90
6293;DHT22;3179;54.350;10.102;2023-07-22T09:47:40;18.50;99.90
6293;DHT22;3179;54.350;10.102;2023-07-22T09:50:10;18.50;99.90
6293;DHT22;3179;54.350;10.102;2023-07-22T09:52:48;18.50;99.90
6293;DHT22;3179;54.350;10.102;2023-07-22T09:55:16;18.60;99.90
6293;DHT22;3179;54.350;10.102;2023-07-22T09:57:46;18.70;99.90
6293;DHT22;3179;54.350;10.102;2023-07-22T10:00:14;18.70;99.90
6293;DHT22;3179;54.350;10.102;2023-07-22T10:02:42;18.70;99.90
6293;DHT22;3179;54.350;10.102;2023-07-22T10:05:14;18.80;99.90
6293;DHT22;3179;54.350;10.102;2023-07-22T10:07:46;18.90;99.90
6293;DHT22;3179;54.350;10.102;2023-07-22T10:10:17;19.00;99.90
6293;DHT22;3179;54.350;10.102;2023-07-22T10:12:44;19.10;99.90
6293;DHT22;3179;54.350;10.102;2023-07-22T10:15:13;19.20;99.90
6293;DHT22;3179;54.350;10.102;2023-07-22T10:17:40;19.40;99.90
6293;DHT22;3179;54.350;10.102;2023-07-22T10:20:08;19.60;99.90
6293;DHT22;3179;54.350;10.102;2023-07-22T10:22:38;19.70;99.90
6293;DHT22;3179;54.350;10.102;2023-07-22T10:25:05;19.50;99.90
6293;DHT22;3179;54.350;10.102;2023-07-22T10:27:35;19.40;99.90
6293;DHT22;3179;54.350;10.102;2023-07-22T10:30:06;19.20;99.90
6293;DHT22;3179;54.350;10.102;2023-07-22T10:32:34;19.00;99.90
6293;DHT22;3179;54.350;10.102;2023-07-22T10:35:02;18.70;99.90
6293;DHT22;3179;54.350;10.102;2023-07-22T10:37:30;18.50;99.90
6293;DHT22;3179;54.350;10.102;2023-07-22T10:40:00;18.40;99.90
6293;DHT22;3179;54.350;10.102;2023-07-22T10:42:27;18.30;99.90
6293;DHT22;3179;54.350;10.102;2023-07-22T10:45:00;18.20;99.90
6293;DHT22;3179;54.350;10.102;2023-07-22T10:47:34;18.40;99.90
6293;DHT22;3179;54.350;10.102;2023-07-22T10:50:08;18.60;99.90
6293;DHT22;3179;54.350;10.102;2023-07-22T10:52:40;18.90;99.90
6293;DHT22;3179;54.350;10.102;2023-07-22T10:55:14;19.10;99.90
6293;DHT22;3179;54.350;10.102;2023-07-22T10:57:48;19.30;99.90
6293;DHT22;3179;54.350;10.102;2023-07-22T11:00:21;19.40;99.90
6293;DHT22;3179;54.350;10.102;2023-07-22T11:03:09;19.60;99.90
6293;DHT22;3179;54.350;10.102;2023-07-22T11:05:49;19.80;99.90
6293;DHT22;3179;54.350;10.102;2023-07-22T11:08:16;20.00;99.90
6293;DHT22;3179;54.350;10.102;2023-07-22T11:11:02;20.10;99.90
6293;DHT22;3179;54.350;10.102;2023-07-22T11:13:28;20.20;99.90
6293;DHT22;3179;54.350;10.102;2023-07-22T11:15:59;20.10;99.90
6293;DHT22;3179;54.350;10.102;2023-07-22T11:18:36;20.00;99.90
6293;DHT22;3179;54.350;10.102;2023-07-22T11:21:07;20.00;99.90
6293;DHT22;3179;54.350;10.102;2023-07-22T11:23:34;20.00;99.90
6293;DHT22;3179;54.350;10.102;2023-07-22T11:26:02;20.20;99.90
6293;DHT22;3179;54.350;10.102;2023-07-22T11:28:29;20.20;99.90
6293;DHT22;3179;54.350;10.102;2023-07-22T11:30:56;20.10;99.90
6293;DHT22;3179;54.350;10.102;2023-07-22T11:33:25;20.00;99.90
6293;DHT22;3179;54.350;10.102;2023-07-22T11:35:52;19.80;99.90
6293;DHT22;3179;54.350;10.102;2023-07-22T11:38:19;19.70;99.90
6293;DHT22;3179;54.350;10.102;2023-07-22T11:40:46;19.60;99.90
6293;DHT22;3179;54.350;10.102;2023-07-22T11:43:14;19.60;99.90
6293;DHT22;3179;54.350;10.102;2023-07-22T11:45:41;19.50;99.90
6293;DHT22;3179;54.350;10.102;2023-07-22T11:48:10;19.40;99.90
6293;DHT22;3179;54.350;10.102;2023-07-22T11:50:38;19.30;99.90
6293;DHT22;3179;54.350;10.102;2023-07-22T11:53:05;19.20;99.90
6293;DHT22;3179;54.350;10.102;2023-07-22T11:55:34;19.10;99.90
6293;DHT22;3179;54.350;10.102;2023-07-22T11:58:02;19.10;99.90
6293;DHT22;3179;54.350;10.102;2023-07-22T12:00:29;19.00;99.90
6293;DHT22;3179;54.350;10.102;2023-07-22T12:02:56;19.00;99.90
6293;DHT22;3179;54.350;10.102;2023-07-22T12:05:24;19.00;99.90
6293;DHT22;3179;54.350;10.102;2023-07-22T12:07:52;19.10;99.90
6293;DHT22;3179;54.350;10.102;2023-07-22T12:10:19;19.20;99.90
6293;DHT22;3179;54.350;10.102;2023-07-22T12:12:46;19.20;99.90
6293;DHT22;3179;54.350;10.102;2023-07-22T12:15:16;19.20;99.90
6293;DHT22;3179;54.350;10.102;2023-07-22T12:17:44;19.20;99.90
6293;DHT22;3179;54.350;10.102;2023-07-22T12:20:12;19.20;99.90
6293;DHT22;3179;54.350;10.102;2023-07-22T12:22:39;19.20;99.90
6293;DHT22;3179;54.350;10.102;2023-07-22T12:25:08;19.10;99.90
6293;DHT22;3179;54.350;10.102;2023-07-22T12:27:36;19.10;99.90
6293;DHT22;3179;54.350;10.102;2023-07-22T12:30:03;19.00;99.90
6293;DHT22;3179;54.350;10.102;2023-07-22T12:32:31;19.00;99.90
6293;DHT22;3179;54.350;10.102;2023-07-22T12:34:57;19.00;99.90
6293;DHT22;3179;54.350;10.102;2023-07-22T12:37:24;19.10;99.90
6293;DHT22;3179;54.350;10.102;2023-07-22T12:39:52;19.10;99.90
6293;DHT22;3179;54.350;10.102;2023-07-22T12:42:20;19.20;99.90
6293;DHT22;3179;54.350;10.102;2023-07-22T12:44:47;19.20;99.90
6293;DHT22;3179;54.350;10.102;2023-07-22T12:47:13;19.20;99.90
6293;DHT22;3179;54.350;10.102;2023-07-22T12:49:40;19.20;99.90
6293;DHT22;3179;54.350;10.102;2023-07-22T12:52:07;19.30;99.90
6293;DHT22;3179;54.350;10.102;2023-07-22T12:54:35;19.30;99.90
6293;DHT22;3179;54.350;10.102;2023-07-22T12:57:02;19.30;99.90
6293;DHT22;3179;54.350;10.102;2023-07-22T12:59:30;19.40;99.90
6293;DHT22;3179;54.350;10.102;2023-07-22T13:01:57;19.40;99.90
6293;DHT22;3179;54.350;10.102;2023-07-22T13:04:24;19.50;99.90
6293;DHT22;3179;54.350;10.102;2023-07-22T13:06:52;19.50;99.90
6293;DHT22;3179;54.350;10.102;2023-07-22T13:30:51;19.60;99.90
6293;DHT22;3179;54.350;10.102;2023-07-22T13:46:27;19.20;99.90
6293;DHT22;3179;54.350;10.102;2023-07-22T13:48:54;19.10;99.90
6293;DHT22;3179;54.350;10.102;2023-07-22T13:51:21;19.10;99.90
6293;DHT22;3179;54.350;10.102;2023-07-22T13:53:48;19.10;99.90
6293;DHT22;3179;54.350;10.102;2023-07-22T13:56:15;19.10;99.90
6293;DHT22;3179;54.350;10.102;2023-07-22T13:58:42;19.20;99.90
6293;DHT22;3179;54.350;10.102;2023-07-22T14:01:08;19.20;99.90
6293;DHT22;3179;54.350;10.102;2023-07-22T14:03:36;19.30;99.90
6293;DHT22;3179;54.350;10.102;2023-07-22T14:06:04;19.30;99.90
6293;DHT22;3179;54.350;10.102;2023-07-22T14:08:31;19.30;99.90
6293;DHT22;3179;54.350;10.102;2023-07-22T14:10:59;19.30;99.90
6293;DHT22;3179;54.350;10.102;2023-07-22T14:13:26;19.30;99.90
6293;DHT22;3179;54.350;10.102;2023-07-22T14:15:52;19.30;99.90
6293;DHT22;3179;54.350;10.102;2023-07-22T14:18:19;19.30;99.90
6293;DHT22;3179;54.350;10.102;2023-07-22T14:20:47;19.20;99.90
6293;DHT22;3179;54.350;10.102;2023-07-22T14:23:14;19.20;99.90
6293;DHT22;3179;54.350;10.102;2023-07-22T14:25:41;19.20;99.90
6293;DHT22;3179;54.350;10.102;2023-07-22T14:28:07;19.10;99.90
6293;DHT22;3179;54.350;10.102;2023-07-22T14:30:34;19.10;99.90
6293;DHT22;3179;54.350;10.102;2023-07-22T14:33:01;19.10;99.90
6293;DHT22;3179;54.350;10.102;2023-07-22T14:35:28;19.00;99.90
6293;DHT22;3179;54.350;10.102;2023-07-22T14:37:56;19.00;99.90
6293;DHT22;3179;54.350;10.102;2023-07-22T14:40:25;19.00;99.90
6293;DHT22;3179;54.350;10.102;2023-07-22T14:42:51;18.90;99.90
6293;DHT22;3179;54.350;10.102;2023-07-22T14:45:18;18.90;99.90
6293;DHT22;3179;54.350;10.102;2023-07-22T14:47:45;18.90;99.90
6293;DHT22;3179;54.350;10.102;2023-07-22T14:50:12;18.80;99.90
6293;DHT22;3179;54.350;10.102;2023-07-22T14:52:39;18.80;99.90
6293;DHT22;3179;54.350;10.102;2023-07-22T14:55:09;18.70;99.90
6293;DHT22;3179;54.350;10.102;2023-07-22T14:57:36;18.70;99.90
6293;DHT22;3179;54.350;10.102;2023-07-22T15:00:03;18.60;99.90
6293;DHT22;3179;54.350;10.102;2023-07-22T15:02:30;18.60;99.90
6293;DHT22;3179;54.350;10.102;2023-07-22T15:04:57;18.60;99.90
6293;DHT22;3179;54.350;10.102;2023-07-22T15:07:24;18.50;99.90
6293;DHT22;3179;54.350;10.102;2023-07-22T15:09:51;18.50;99.90
6293;DHT22;3179;54.350;10.102;2023-07-22T15:12:20;18.50;99.90
6293;DHT22;3179;54.350;10.102;2023-07-22T15:14:46;18.50;99.90
6293;DHT22;3179;54.350;10.102;2023-07-22T15:17:13;18.50;99.90
6293;DHT22;3179;54.350;10.102;2023-07-22T15:19:40;18.40;99.90
6293;DHT22;3179;54.350;10.102;2023-07-22T15:22:07;18.40;99.90
6293;DHT22;3179;54.350;10.102;2023-07-22T15:24:33;18.40;99.90
6293;DHT22;3179;54.350;10.102;2023-07-22T15:27:00;18.40;99.90
6293;DHT22;3179;54.350;10.102;2023-07-22T15:29:28;18.30;99.90
6293;DHT22;3179;54.350;10.102;2023-07-22T15:31:55;18.30;99.90
6293;DHT22;3179;54.350;10.102;2023-07-22T15:34:22;18.30;99.90
6293;DHT22;3179;54.350;10.102;2023-07-22T15:36:48;18.30;99.90
6293;DHT22;3179;54.350;10.102;2023-07-22T15:39:15;18.20;99.90
6293;DHT22;3179;54.350;10.102;2023-07-22T15:41:42;18.20;99.90
6293;DHT22;3179;54.350;10.102;2023-07-22T15:44:09;18.20;99.90
6293;DHT22;3179;54.350;10.102;2023-07-22T15:46:37;18.20;99.90
6293;DHT22;3179;54.350;10.102;2023-07-22T15:49:03;18.10;99.90
6293;DHT22;3179;54.350;10.102;2023-07-22T15:51:31;18.10;99.90
6293;DHT22;3179;54.350;10.102;2023-07-22T15:54:00;18.10;99.90
6293;DHT22;3179;54.350;10.102;2023-07-22T15:56:27;18.10;99.90
6293;DHT22;3179;54.350;10.102;2023-07-22T15:58:53;18.00;99.90
6293;DHT22;3179;54.350;10.102;2023-07-22T16:01:20;18.00;99.90
6293;DHT22;3179;54.350;10.102;2023-07-22T16:03:48;18.00;99.90
6293;DHT22;3179;54.350;10.102;2023-07-22T16:06:15;18.00;99.90
6293;DHT22;3179;54.350;10.102;2023-07-22T16:08:42;18.00;99.90
6293;DHT22;3179;54.350;10.102;2023-07-22T16:11:09;18.00;99.90
6293;DHT22;3179;54.350;10.102;2023-07-22T16:13:36;18.00;99.90
6293;DHT22;3179;54.350;10.102;2023-07-22T16:16:03;18.00;99.90
6293;DHT22;3179;54.350;10.102;2023-07-22T16:18:30;18.10;99.90
6293;DHT22;3179;54.350;10.102;2023-07-22T16:20:58;18.00;99.90
6293;DHT22;3179;54.350;10.102;2023-07-22T16:23:25;18.10;99.90